Impacts TAF Board
For situational awareness. Not to be used for flight planning purposes.
IDs:

KMDW - Chicago/Midway Intl, IL, US

Issued at 1720 UTC 24 Sep 2018
Updated at 1745 UTC 24 Sep 2018
Potential Impact None Slight Moderate High
Time<<25/06Z 25/07Z 25/08Z 25/09Z 25/10Z 25/11Z 25/12Z 25/13Z 25/14Z 25/15Z 25/16Z 25/17Z 25/18Z>>
Type PRVL PRVL PRVL PRVL PRVL PRVL PRVL PRVL PRVL PRVL PRVL PRVL PRVL
VIS 5 5 5 5 5 6 6 6 6 6 >6 >6 >6
CIG 8 8 8 8 8 12 12 12 12 12 35 35 35
Cover OVC OVC OVC OVC OVC OVC OVC OVC OVC OVC BKN BKN BKN
FltCat IFR IFR IFR IFR IFR MVFR MVFR MVFR MVFR MVFR VFR VFR VFR
WX -DZ BR -DZ BR -DZ BR -DZ BR -DZ BR BR BR BR BR BR VCSH VCSH VCSH
WDir 200 200 200 200 200 210 210 210 210 210 200 200 200
WSpd 6 6 6 6 6 4 4 4 4 4 9 9 9
WGst -- -- -- -- -- -- -- -- -- -- -- -- --
Raw TAF
KMDW 241720Z 2418/2524 11009KT P6SM BKN015
  FM242100 14007KT P6SM OVC015
  FM250100 16006KT P6SM -DZ OVC010
  FM250300 20006KT 5SM -DZ BR OVC008
  FM251100 21004KT 6SM BR OVC012
  FM251600 20009KT P6SM VCSH SCT012 BKN035
  PROB30 2521/2524 3SM TSRA OVC035CB


METAR Board
Radar Display
Forecast Discussion
For situational awareness. Not to be used for flight planning purposes.